createdAt,value
2018-07-26T00:00:39.922Z,3.27
2018-07-26T00:03:07.300Z,3.30
2018-07-26T00:05:34.388Z,3.65
2018-07-26T00:08:01.471Z,3.85
2018-07-26T00:10:28.572Z,3.42
2018-07-26T00:12:55.730Z,3.77
2018-07-26T00:15:22.848Z,4.47
2018-07-26T00:17:50.011Z,4.12
2018-07-26T00:20:17.160Z,3.83
2018-07-26T00:22:44.244Z,3.70
2018-07-26T00:25:11.368Z,3.87
2018-07-26T00:27:38.479Z,4.08
2018-07-26T00:30:05.908Z,4.22
2018-07-26T00:32:33.088Z,4.20
2018-07-26T00:35:00.182Z,3.67
2018-07-26T00:37:27.378Z,4.00
2018-07-26T00:39:54.512Z,4.37
2018-07-26T00:42:21.677Z,4.10
2018-07-26T00:44:48.844Z,3.95
2018-07-26T00:47:15.945Z,4.67
2018-07-26T00:49:43.095Z,4.65
2018-07-26T00:52:10.238Z,4.22
2018-07-26T00:54:37.402Z,4.50
2018-07-26T00:57:04.779Z,4.15
2018-07-26T00:59:31.898Z,7.78
2018-07-26T01:01:59.009Z,6.60
2018-07-26T01:04:26.102Z,6.42
2018-07-26T01:06:53.184Z,4.60
2018-07-26T01:09:20.335Z,4.25
2018-07-26T01:11:47.427Z,4.35
2018-07-26T01:14:14.599Z,4.75
2018-07-26T01:16:41.735Z,5.08
2018-07-26T01:19:08.850Z,4.83
2018-07-26T01:21:35.921Z,4.65
2018-07-26T01:24:03.259Z,4.90
2018-07-26T01:26:30.381Z,4.55
2018-07-26T01:28:57.476Z,4.58
2018-07-26T01:31:24.596Z,4.67
2018-07-26T01:33:52.157Z,4.55
2018-07-26T01:36:19.362Z,4.67
2018-07-26T01:38:46.560Z,5.00
2018-07-26T01:41:13.719Z,4.62
2018-07-26T01:43:47.835Z,4.65
2018-07-26T01:46:15.322Z,4.72
2018-07-26T01:48:43.252Z,5.00
2018-07-26T01:51:11.032Z,4.58
2018-07-26T01:53:38.180Z,4.12
2018-07-26T01:56:06.051Z,4.37
2018-07-26T01:58:33.220Z,4.37
2018-07-26T02:01:00.379Z,4.75
2018-07-26T02:03:27.445Z,6.22
2018-07-26T02:05:54.607Z,4.45
2018-07-26T02:08:21.901Z,5.03
2018-07-26T02:10:48.973Z,4.80
2018-07-26T02:13:16.069Z,5.97
2018-07-26T02:15:43.174Z,4.90
2018-07-26T02:18:10.322Z,4.90
2018-07-26T02:20:37.408Z,5.50
2018-07-26T02:23:04.690Z,5.65
2018-07-26T02:25:31.753Z,5.55
2018-07-26T02:27:58.894Z,5.10
2018-07-26T02:30:25.992Z,5.53
2018-07-26T02:32:53.137Z,4.92
2018-07-26T02:35:20.204Z,5.37
2018-07-26T02:37:47.306Z,4.92
2018-07-26T02:40:14.403Z,4.87
2018-07-26T02:42:41.567Z,6.00
2018-07-26T02:45:08.643Z,6.35
2018-07-26T02:47:35.732Z,5.10
2018-07-26T02:50:02.915Z,5.90
2018-07-26T02:52:29.979Z,6.08
2018-07-26T02:54:57.043Z,4.87
2018-07-26T02:57:24.213Z,5.60
2018-07-26T02:59:51.392Z,5.37
2018-07-26T03:02:18.551Z,4.95
2018-07-26T03:04:45.647Z,6.03
2018-07-26T03:07:12.831Z,5.28
2018-07-26T03:09:39.920Z,6.15
2018-07-26T03:12:06.999Z,5.90
2018-07-26T03:14:39.916Z,5.90
2018-07-26T03:17:07.000Z,5.37
2018-07-26T03:19:34.189Z,5.15
2018-07-26T03:22:01.340Z,5.72
2018-07-26T03:24:28.470Z,5.30
2018-07-26T03:26:55.572Z,5.72
2018-07-26T03:29:22.730Z,5.25
2018-07-26T03:31:49.824Z,5.37
2018-07-26T03:34:16.968Z,5.65
2018-07-26T03:36:44.069Z,5.62
2018-07-26T03:39:11.200Z,6.03
2018-07-26T03:41:38.630Z,5.55
2018-07-26T03:44:05.815Z,6.35
2018-07-26T03:46:32.920Z,6.15
2018-07-26T03:49:00.067Z,5.53
2018-07-26T03:51:27.303Z,5.67
2018-07-26T03:53:54.419Z,5.40
2018-07-26T03:56:21.594Z,5.35
2018-07-26T03:58:48.755Z,6.08
2018-07-26T04:01:15.901Z,5.50
2018-07-26T04:03:43.005Z,5.80
2018-07-26T04:06:10.172Z,5.87
2018-07-26T04:08:37.271Z,5.90
2018-07-26T04:11:04.430Z,6.67
2018-07-26T04:13:31.536Z,5.95
2018-07-26T04:15:58.664Z,6.03
2018-07-26T04:18:25.808Z,5.15
2018-07-26T04:20:52.971Z,5.17
2018-07-26T04:23:20.047Z,5.12
2018-07-26T04:25:47.230Z,5.20
2018-07-26T04:28:14.366Z,5.72
2018-07-26T04:30:41.479Z,6.00
2018-07-26T04:33:08.727Z,5.85
2018-07-26T04:35:35.824Z,6.45
2018-07-26T04:38:02.983Z,5.97
2018-07-26T04:40:30.088Z,5.92
2018-07-26T04:42:57.214Z,5.58
2018-07-26T04:45:24.308Z,5.28
2018-07-26T04:47:51.388Z,5.85
2018-07-26T04:50:18.572Z,5.92
2018-07-26T04:52:45.787Z,6.03
2018-07-26T04:55:12.944Z,6.30
2018-07-26T04:57:40.101Z,5.53
2018-07-26T05:00:07.276Z,5.45
2018-07-26T05:02:34.564Z,6.45
2018-07-26T05:05:01.657Z,5.50
2018-07-26T05:07:28.804Z,7.08
2018-07-26T05:09:55.876Z,6.10
2018-07-26T05:12:22.990Z,6.00
2018-07-26T05:14:50.186Z,6.15
2018-07-26T05:17:17.326Z,5.97
2018-07-26T05:19:44.431Z,6.58
2018-07-26T05:22:11.515Z,6.10
2018-07-26T05:24:38.696Z,5.75
2018-07-26T05:27:06.001Z,6.15
2018-07-26T05:29:33.172Z,6.47
2018-07-26T05:32:00.321Z,6.25
2018-07-26T05:34:27.433Z,6.20
2018-07-26T05:36:54.515Z,6.70
2018-07-26T05:39:21.704Z,6.08
2018-07-26T05:41:48.871Z,6.45
2018-07-26T05:44:15.984Z,6.40
2018-07-26T05:46:43.188Z,6.72
2018-07-26T05:49:10.348Z,6.30
2018-07-26T05:51:37.471Z,6.22
2018-07-26T05:54:04.653Z,6.97
2018-07-26T05:56:31.791Z,6.80
2018-07-26T05:58:58.945Z,7.28
2018-07-26T06:01:26.090Z,6.30
2018-07-26T06:03:53.606Z,6.83
2018-07-26T06:06:20.771Z,6.65
2018-07-26T06:08:47.941Z,7.17
2018-07-26T06:11:15.088Z,6.55
2018-07-26T06:13:42.187Z,7.03
2018-07-26T06:16:09.315Z,7.53
2018-07-26T06:18:36.459Z,7.22
2018-07-26T06:21:03.598Z,10.13
2018-07-26T06:23:30.729Z,7.30
2018-07-26T06:25:57.925Z,6.87
2018-07-26T06:28:25.098Z,7.58
2018-07-26T06:30:52.932Z,7.30
2018-07-26T06:33:20.244Z,7.15
2018-07-26T06:35:47.378Z,7.55
2018-07-26T06:38:14.580Z,6.45
2018-07-26T06:40:41.913Z,6.25
2018-07-26T06:43:09.860Z,7.70
2018-07-26T06:45:37.080Z,6.62
2018-07-26T06:48:05.035Z,9.55
2018-07-26T06:50:32.229Z,7.37
2018-07-26T06:52:59.352Z,7.30
2018-07-26T06:55:26.561Z,7.37
2018-07-26T06:57:54.248Z,9.63
2018-07-26T07:00:21.454Z,7.10
2018-07-26T07:02:48.671Z,7.05
2018-07-26T07:05:15.795Z,7.22
2018-07-26T07:07:43.951Z,7.33
2018-07-26T07:10:11.823Z,7.22
2018-07-26T07:12:38.980Z,7.58
2018-07-26T07:15:06.154Z,7.80
2018-07-26T07:17:33.304Z,7.12
2018-07-26T07:20:01.102Z,6.65
2018-07-26T07:22:28.252Z,8.58
2018-07-26T07:24:55.428Z,6.95
2018-07-26T07:27:22.600Z,6.35
2018-07-26T07:29:49.730Z,6.53
2018-07-26T07:32:16.921Z,6.37
2018-07-26T07:34:44.052Z,10.20
2018-07-26T07:37:11.458Z,6.37
2018-07-26T07:39:38.676Z,6.03
2018-07-26T07:42:05.845Z,7.53
2018-07-26T07:44:33.025Z,6.53
2018-07-26T07:47:00.258Z,6.15
2018-07-26T07:49:27.420Z,7.12
2018-07-26T07:51:54.618Z,6.05
2018-07-26T07:54:21.769Z,5.92
2018-07-26T07:56:48.897Z,6.70
2018-07-26T07:59:16.069Z,6.15
2018-07-26T08:01:43.311Z,6.33
2018-07-26T08:04:10.516Z,6.67
2018-07-26T08:06:37.724Z,6.60
2018-07-26T08:09:07.291Z,5.87
2018-07-26T08:11:34.407Z,5.60
2018-07-26T08:14:01.631Z,6.60
2018-07-26T08:16:28.796Z,6.25
2018-07-26T08:18:55.963Z,6.03
2018-07-26T08:21:23.204Z,6.47
2018-07-26T08:23:50.397Z,5.95
2018-07-26T08:26:17.565Z,5.87
2018-07-26T08:28:44.704Z,6.33
2018-07-26T08:31:11.843Z,5.85
2018-07-26T08:33:39.015Z,6.37
2018-07-26T08:36:06.192Z,6.35
2018-07-26T08:38:33.373Z,5.80
2018-07-26T08:41:00.577Z,6.47
2018-07-26T08:43:27.784Z,6.83
2018-07-26T08:45:54.944Z,5.97
2018-07-26T08:48:22.149Z,6.10
2018-07-26T08:50:49.340Z,5.80
2018-07-26T08:53:16.526Z,5.80
2018-07-26T08:55:43.737Z,6.25
2018-07-26T08:58:11.007Z,5.55
2018-07-26T09:00:38.201Z,5.83
2018-07-26T09:03:05.360Z,6.45
2018-07-26T09:05:32.549Z,6.50
2018-07-26T09:07:59.725Z,6.53
2018-07-26T09:10:26.849Z,6.17
2018-07-26T09:12:54.005Z,6.20
2018-07-26T09:15:21.136Z,6.12
2018-07-26T09:17:48.312Z,6.25
2018-07-26T09:20:15.440Z,6.20
2018-07-26T09:22:42.615Z,5.90
2018-07-26T09:25:09.755Z,5.60
2018-07-26T09:27:36.882Z,5.45
2018-07-26T09:30:05.148Z,6.25
2018-07-26T09:32:32.268Z,6.50
2018-07-26T09:34:59.440Z,5.67
2018-07-26T09:37:26.623Z,5.78
2018-07-26T09:39:53.778Z,5.78
2018-07-26T09:42:20.950Z,6.10
2018-07-26T09:44:48.086Z,5.15
2018-07-26T09:47:15.314Z,5.95
2018-07-26T09:49:42.517Z,5.65
2018-07-26T09:52:09.667Z,5.75
2018-07-26T09:54:38.509Z,6.75
2018-07-26T09:57:05.909Z,6.72
2018-07-26T09:59:33.073Z,6.75
2018-07-26T10:02:00.225Z,7.00
2018-07-26T10:04:27.519Z,5.33
2018-07-26T10:06:54.693Z,6.70
2018-07-26T10:09:21.859Z,5.30
2018-07-26T10:11:49.026Z,4.83
2018-07-26T10:14:16.183Z,5.60
2018-07-26T10:16:43.290Z,5.03
2018-07-26T10:19:10.424Z,6.15
2018-07-26T10:21:37.654Z,5.15
2018-07-26T10:24:04.971Z,5.22
2018-07-26T10:26:32.133Z,5.28
2018-07-26T10:28:59.304Z,5.37
2018-07-26T10:31:26.594Z,4.85
2018-07-26T10:33:54.020Z,5.08
2018-07-26T10:36:21.525Z,5.58
2018-07-26T10:38:48.744Z,5.15
2018-07-26T10:41:15.894Z,5.33
2018-07-26T10:43:43.120Z,5.55
2018-07-26T10:46:10.269Z,5.92
2018-07-26T10:48:37.433Z,5.60
2018-07-26T10:51:04.751Z,5.37
2018-07-26T10:53:31.947Z,5.70
2018-07-26T10:55:59.109Z,6.15
2018-07-26T10:58:26.463Z,6.12
2018-07-26T11:00:53.608Z,5.75
2018-07-26T11:03:21.499Z,5.30
2018-07-26T11:05:48.673Z,4.87
2018-07-26T11:08:15.800Z,7.55
2018-07-26T11:10:42.983Z,6.22
2018-07-26T11:13:10.128Z,5.08
2018-07-26T11:15:37.236Z,5.35
2018-07-26T11:18:04.582Z,5.90
2018-07-26T11:20:31.697Z,5.08
2018-07-26T11:22:58.898Z,5.08
2018-07-26T11:25:26.070Z,5.47
2018-07-26T11:27:53.824Z,6.35
2018-07-26T11:30:21.112Z,5.28
2018-07-26T11:32:48.299Z,5.33
2018-07-26T11:35:15.523Z,6.58
2018-07-26T11:37:42.718Z,5.58
2018-07-26T11:40:09.903Z,5.83
2018-07-26T11:42:37.057Z,5.00
2018-07-26T11:45:04.634Z,5.20
2018-07-26T11:47:31.827Z,5.58
2018-07-26T11:49:59.006Z,5.55
2018-07-26T11:52:26.179Z,5.72
2018-07-26T11:54:53.379Z,5.22
2018-07-26T11:57:20.535Z,5.35
2018-07-26T11:59:47.764Z,5.10
2018-07-26T12:02:14.995Z,4.85
2018-07-26T12:04:42.513Z,5.00
2018-07-26T12:07:09.712Z,4.92
2018-07-26T12:09:37.636Z,4.60
2018-07-26T12:12:04.828Z,4.60
2018-07-26T12:14:32.017Z,4.72
2018-07-26T12:16:59.241Z,5.15
2018-07-26T12:19:26.476Z,6.50
2018-07-26T12:21:53.646Z,6.92
2018-07-26T12:24:20.890Z,5.25
2018-07-26T12:26:48.384Z,4.45
2018-07-26T12:29:15.542Z,5.53
2018-07-26T12:31:42.699Z,5.60
2018-07-26T12:34:09.904Z,3.95
2018-07-26T12:36:36.995Z,4.78
2018-07-26T12:39:06.420Z,4.53
2018-07-26T12:41:34.225Z,5.20
2018-07-26T12:44:01.421Z,4.75
2018-07-26T12:46:28.639Z,4.28
2018-07-26T12:48:55.800Z,4.62
2018-07-26T12:51:22.919Z,4.50
2018-07-26T12:53:50.053Z,4.40
2018-07-26T12:56:17.211Z,4.25
2018-07-26T12:58:44.398Z,4.37
2018-07-26T13:01:11.518Z,4.47
2018-07-26T13:03:38.704Z,4.67
2018-07-26T13:06:05.836Z,4.30
2018-07-26T13:08:33.036Z,4.95
2018-07-26T13:11:00.222Z,4.33
2018-07-26T13:13:27.412Z,4.45
2018-07-26T13:15:54.556Z,4.35
2018-07-26T13:18:21.704Z,4.65
2018-07-26T13:20:48.884Z,3.92
2018-07-26T13:23:16.070Z,4.33
2018-07-26T13:25:43.246Z,4.28
2018-07-26T13:28:11.449Z,4.58
2018-07-26T13:30:38.629Z,5.10
2018-07-26T13:33:05.934Z,4.58
2018-07-26T13:35:33.099Z,4.67
2018-07-26T13:38:01.047Z,3.95
2018-07-26T13:40:28.227Z,4.75
2018-07-26T13:42:56.277Z,4.35
2018-07-26T13:45:23.455Z,4.72
2018-07-26T13:47:50.633Z,4.58
2018-07-26T13:50:17.849Z,4.97
2018-07-26T13:52:45.054Z,4.47
2018-07-26T13:55:12.152Z,5.12
2018-07-26T13:57:39.347Z,4.97
2018-07-26T14:00:06.538Z,4.50
2018-07-26T14:02:33.677Z,4.75
2018-07-26T14:05:00.827Z,5.25
2018-07-26T14:07:29.060Z,5.45
2018-07-26T14:09:56.238Z,5.12
2018-07-26T14:12:23.385Z,4.80
2018-07-26T14:14:50.571Z,5.17
2018-07-26T14:17:17.704Z,4.17
2018-07-26T14:19:44.834Z,4.72
2018-07-26T14:22:12.004Z,4.85
2018-07-26T14:24:39.185Z,4.85
2018-07-26T14:27:06.380Z,4.47
2018-07-26T14:29:33.618Z,3.95
2018-07-26T14:32:01.447Z,4.37
2018-07-26T14:34:28.779Z,4.17
2018-07-26T14:36:56.869Z,4.05
2018-07-26T14:39:24.259Z,4.87
2018-07-26T14:41:51.390Z,4.50
2018-07-26T14:44:18.608Z,5.05
2018-07-26T14:46:46.558Z,4.22
2018-07-26T14:49:13.696Z,4.65
2018-07-26T14:51:40.962Z,4.65
2018-07-26T14:54:08.392Z,4.47
2018-07-26T14:56:35.494Z,4.95
2018-07-26T14:59:02.764Z,4.80
2018-07-26T15:01:29.992Z,5.50
2018-07-26T15:03:57.152Z,5.08
2018-07-26T15:06:24.295Z,4.55
2018-07-26T15:08:51.534Z,5.35
2018-07-26T15:11:18.725Z,5.30
2018-07-26T15:13:45.968Z,4.60
2018-07-26T15:16:13.179Z,4.70
2018-07-26T15:18:40.668Z,4.78
2018-07-26T15:21:07.856Z,5.42
2018-07-26T15:23:35.128Z,5.20
2018-07-26T15:26:03.161Z,5.37
2018-07-26T15:28:31.083Z,5.42
2018-07-26T15:30:58.353Z,4.70
2018-07-26T15:33:25.635Z,4.75
2018-07-26T15:35:52.925Z,4.47
2018-07-26T15:38:20.800Z,5.22
2018-07-26T15:40:47.960Z,5.70
2018-07-26T15:43:15.143Z,5.17
2018-07-26T15:45:42.390Z,4.85
2018-07-26T15:48:10.151Z,4.45
2018-07-26T15:50:38.193Z,6.33
2018-07-26T15:53:05.388Z,4.50
2018-07-26T15:55:32.644Z,4.58
2018-07-26T15:57:59.733Z,5.03
2018-07-26T16:00:27.706Z,5.30
2018-07-26T16:02:54.961Z,4.95
2018-07-26T16:05:22.209Z,4.62
2018-07-26T16:07:49.357Z,5.90
2018-07-26T16:10:16.517Z,5.83
2018-07-26T16:12:43.671Z,5.22
2018-07-26T16:15:11.134Z,5.40
2018-07-26T16:17:38.414Z,5.53
2018-07-26T16:20:06.343Z,5.28
2018-07-26T16:22:33.515Z,5.87
2018-07-26T16:25:00.701Z,5.55
2018-07-26T16:27:27.891Z,5.45
2018-07-26T16:29:55.050Z,4.80
2018-07-26T16:32:22.371Z,5.20
2018-07-26T16:34:49.509Z,5.15
2018-07-26T16:37:16.653Z,5.72
2018-07-26T16:39:44.662Z,5.65
2018-07-26T16:42:11.825Z,5.80
2018-07-26T16:44:39.092Z,5.92
2018-07-26T16:47:06.335Z,5.50
2018-07-26T16:49:33.425Z,5.53
2018-07-26T16:52:01.066Z,5.80
2018-07-26T16:54:28.292Z,5.33
2018-07-26T16:56:55.403Z,5.60
2018-07-26T16:59:22.651Z,5.28
2018-07-26T17:01:50.125Z,5.53
2018-07-26T17:04:17.385Z,5.55
2018-07-26T17:06:44.936Z,5.67
2018-07-26T17:09:12.084Z,5.62
2018-07-26T17:11:39.564Z,6.03
2018-07-26T17:14:06.763Z,6.17
2018-07-26T17:16:34.081Z,6.37
2018-07-26T17:19:01.397Z,6.58
2018-07-26T17:21:28.488Z,6.67
2018-07-26T17:23:55.659Z,5.90
2018-07-26T17:26:22.906Z,5.97
2018-07-26T17:28:50.203Z,5.42
2018-07-26T17:31:17.336Z,5.75
2018-07-26T17:33:44.474Z,5.42
2018-07-26T17:36:11.666Z,6.03
2018-07-26T17:38:38.894Z,6.30
2018-07-26T17:41:06.062Z,5.50
2018-07-26T17:43:33.188Z,5.42
2018-07-26T17:46:00.419Z,6.17
2018-07-26T17:48:27.586Z,5.58
2018-07-26T17:50:54.721Z,6.00
2018-07-26T17:53:21.868Z,5.67
2018-07-26T17:55:48.997Z,5.55
2018-07-26T17:58:16.215Z,5.95
2018-07-26T18:00:43.406Z,5.85
2018-07-26T18:03:10.636Z,6.00
2018-07-26T18:05:37.813Z,5.97
2018-07-26T18:09:20.407Z,5.10
2018-07-26T18:11:47.673Z,5.30
2018-07-26T18:14:14.952Z,5.55
2018-07-26T18:16:42.251Z,6.22
2018-07-26T18:19:09.473Z,5.78
2018-07-26T18:21:36.879Z,6.92
2018-07-26T18:24:04.095Z,6.00
2018-07-26T18:26:31.186Z,6.72
2018-07-26T18:28:58.429Z,6.00
2018-07-26T18:31:25.950Z,5.53
2018-07-26T18:33:53.316Z,6.10
2018-07-26T18:36:20.622Z,5.87
2018-07-26T18:38:47.760Z,5.92
2018-07-26T18:41:15.010Z,6.12
2018-07-26T18:43:42.282Z,6.87
2018-07-26T18:46:09.444Z,6.40
2018-07-26T18:48:36.679Z,5.50
2018-07-26T18:51:03.847Z,5.15
2018-07-26T18:53:31.035Z,5.12
2018-07-26T18:55:58.231Z,5.50
2018-07-26T18:58:25.407Z,5.50
2018-07-26T19:00:52.600Z,5.25
2018-07-26T19:03:19.783Z,4.92
2018-07-26T19:05:46.951Z,5.08
2018-07-26T19:08:14.207Z,5.00
2018-07-26T19:10:41.341Z,5.17
2018-07-26T19:13:08.554Z,5.70
2018-07-26T19:15:35.859Z,5.05
2018-07-26T19:18:03.118Z,5.87
2018-07-26T19:20:30.311Z,5.83
2018-07-26T19:22:57.588Z,5.50
2018-07-26T19:25:27.605Z,5.12
2018-07-26T19:27:55.100Z,4.47
2018-07-26T19:30:22.316Z,5.25
2018-07-26T19:32:49.636Z,5.17
2018-07-26T19:35:17.896Z,5.05
2018-07-26T19:37:45.144Z,4.25
2018-07-26T19:40:12.383Z,4.83
2018-07-26T19:42:40.096Z,4.53
2018-07-26T19:45:08.398Z,5.22
2018-07-26T19:47:35.676Z,4.37
2018-07-26T19:50:02.939Z,4.92
2018-07-26T19:52:30.312Z,4.37
2018-07-26T19:54:57.607Z,4.95
2018-07-26T19:57:25.360Z,4.67
2018-07-26T19:59:52.678Z,4.80
2018-07-26T20:02:19.909Z,4.80
2018-07-26T20:04:47.143Z,5.08
2018-07-26T20:07:15.301Z,4.95
2018-07-26T20:09:42.519Z,5.15
2018-07-26T20:12:09.728Z,4.78
2018-07-26T20:14:36.960Z,4.90
2018-07-26T20:17:04.482Z,4.62
2018-07-26T20:19:31.727Z,4.37
2018-07-26T20:21:58.920Z,5.30
2018-07-26T20:24:26.751Z,4.85
2018-07-26T20:26:56.603Z,7.08
2018-07-26T20:29:25.777Z,5.15
2018-07-26T20:31:53.186Z,4.55
2018-07-26T20:34:20.470Z,4.42
2018-07-26T20:36:47.644Z,3.90
2018-07-26T20:39:14.870Z,4.35
2018-07-26T20:41:42.106Z,4.50
2018-07-26T20:44:10.078Z,4.10
2018-07-26T20:46:37.305Z,4.12
2018-07-26T20:49:04.581Z,3.95
2018-07-26T20:51:31.863Z,4.58
2018-07-26T20:53:59.110Z,4.47
2018-07-26T20:56:26.320Z,3.72
2018-07-26T20:58:53.669Z,4.50
2018-07-26T21:01:20.967Z,4.10
2018-07-26T21:03:48.172Z,4.17
2018-07-26T21:06:15.481Z,4.28
2018-07-26T21:08:42.707Z,3.72
2018-07-26T21:11:09.930Z,4.60
2018-07-26T21:13:37.140Z,4.03
2018-07-26T21:16:04.556Z,4.05
2018-07-26T21:18:31.734Z,4.12
2018-07-26T21:20:59.150Z,4.40
2018-07-26T21:23:26.374Z,3.62
2018-07-26T21:25:53.629Z,4.78
2018-07-26T21:28:20.820Z,3.92
2018-07-26T21:30:48.076Z,3.92
2018-07-26T21:33:15.229Z,4.33
2018-07-26T21:35:42.399Z,3.95
2018-07-26T21:38:09.516Z,4.12
2018-07-26T21:40:36.804Z,3.87
2018-07-26T21:43:04.075Z,3.80
2018-07-26T21:45:31.335Z,3.40
2018-07-26T21:47:58.651Z,3.90
2018-07-26T21:50:25.857Z,3.75
2018-07-26T21:52:53.083Z,3.60
2018-07-26T21:55:20.394Z,4.00
2018-07-26T21:57:47.604Z,3.80
2018-07-26T22:00:15.095Z,3.62
2018-07-26T22:02:42.308Z,3.52
2018-07-26T22:05:09.564Z,4.20
2018-07-26T22:07:37.023Z,3.95
2018-07-26T22:10:04.304Z,3.77
2018-07-26T22:12:31.455Z,3.60
2018-07-26T22:14:58.656Z,4.10
2018-07-26T22:17:25.949Z,4.40
2018-07-26T22:19:53.152Z,3.95
2018-07-26T22:22:20.449Z,3.95
2018-07-26T22:24:47.670Z,4.67
2018-07-26T22:27:14.965Z,4.28
2018-07-26T22:29:42.166Z,3.70
2018-07-26T22:32:09.447Z,4.22
2018-07-26T22:34:36.683Z,4.28
2018-07-26T22:37:03.965Z,3.77
2018-07-26T22:39:31.193Z,4.08
2018-07-26T22:41:58.437Z,4.28
2018-07-26T22:44:25.675Z,3.95
2018-07-26T22:46:52.957Z,4.15
2018-07-26T22:49:20.200Z,5.55
2018-07-26T22:51:47.456Z,4.53
2018-07-26T22:54:14.731Z,4.08
2018-07-26T22:56:41.968Z,4.55
2018-07-26T22:59:09.166Z,4.72
2018-07-26T23:01:36.387Z,4.55
2018-07-26T23:04:03.661Z,4.58
2018-07-26T23:06:31.557Z,4.50
2018-07-26T23:08:58.780Z,5.08
2018-07-26T23:11:26.044Z,5.58
2018-07-26T23:13:53.297Z,5.30
2018-07-26T23:16:20.502Z,5.10
2018-07-26T23:18:47.980Z,4.30
2018-07-26T23:21:15.177Z,5.00
2018-07-26T23:23:42.465Z,4.80
2018-07-26T23:26:09.708Z,4.22
2018-07-26T23:28:36.978Z,4.80
2018-07-26T23:31:06.552Z,4.85
2018-07-26T23:33:50.119Z,4.67
2018-07-26T23:36:18.192Z,4.60
2018-07-26T23:38:45.445Z,5.33
2018-07-26T23:41:12.812Z,4.80
2018-07-26T23:43:40.001Z,4.60
2018-07-26T23:46:07.254Z,4.90
2018-07-26T23:48:34.407Z,4.87
2018-07-26T23:51:04.497Z,4.70
2018-07-26T23:53:31.797Z,5.47
2018-07-26T23:55:59.009Z,5.10
2018-07-26T23:58:26.315Z,4.87
